Time;durP1;ratioP1;P1;durP2;ratioP2;P2;SDS_P1;SDS_P2;PMS_P1;PMS_P2;Temp;Humidity;BMP_temperature;BMP_pressure;BME280_temperature;BME280_humidity;BME280_pressure;Samples;Min_cycle;Max_cycle;Signal;HPM_P1;HPM_P2
2022/09/21 00:01:57;;;;;;;;;8.60;7.00;;;;;15.13;55.03;101882.31;5015332;28;45475;-57
2022/09/21 00:04:22;;;;;;;;;10.25;7.75;;;;;15.12;55.19;101888.94;5015565;28;45259;-57
2022/09/21 00:06:48;;;;;;;;;9.75;9.75;;;;;15.17;54.77;101888.28;5015073;28;46420;-56
2022/09/21 00:09:13;;;;;;;;;8.25;7.25;;;;;15.16;54.51;101889.34;5015217;28;45403;-58
2022/09/21 00:11:39;;;;;;;;;7.50;6.25;;;;;14.98;54.88;101857.66;5015347;28;45581;-57
2022/09/21 00:14:09;;;;;;;;;5.75;5.75;;;;;15.04;55.03;101873.41;4997597;28;45653;-56
2022/09/21 00:16:35;;;;;;;;;7.20;6.00;;;;;15.18;54.70;101889.97;5014476;28;47407;-58
2022/09/21 00:19:01;;;;;;;;;13.50;8.50;;;;;15.17;54.42;101888.28;4997686;28;45246;-57
2022/09/21 00:21:27;;;;;;;;;11.00;8.75;;;;;15.18;54.58;101887.22;5015268;28;45255;-55
2022/09/21 00:23:53;;;;;;;;;6.00;5.50;;;;;15.18;54.64;101887.22;5015124;28;45254;-56
2022/09/21 00:26:20;;;;;;;;;7.00;7.00;;;;;15.15;54.41;101888.47;5014789;28;46597;-57
2022/09/21 00:28:45;;;;;;;;;8.60;5.20;;;;;15.13;54.25;101882.31;5014705;28;45398;-56
2022/09/21 00:31:13;;;;;;;;;8.00;7.00;;;;;15.13;54.85;101893.38;5015499;28;45377;-55
2022/09/21 00:33:39;;;;;;;;;7.00;7.00;;;;;14.82;54.66;101833.22;5015342;28;45424;-57
2022/09/21 00:36:06;;;;;;;;;14.00;10.40;;;;;15.17;54.71;101885.50;4996918;28;46437;-57
2022/09/21 00:38:32;;;;;;;;;13.80;6.60;;;;;14.91;54.82;101859.59;5015056;28;45417;-56
2022/09/21 00:40:58;;;;;;;;;5.25;5.25;;;;;15.09;54.65;101889.34;4997222;28;45416;-56
2022/09/21 00:43:23;;;;;;;;;8.25;7.75;;;;;15.07;54.94;101883.19;5014794;28;45358;-57
2022/09/21 00:45:49;;;;;;;;;6.75;6.50;;;;;15.11;54.62;101883.59;5014697;28;45698;-58
2022/09/21 00:48:14;;;;;;;;;6.00;6.00;;;;;14.81;54.96;101846.22;4980747;28;45507;-56
2022/09/21 00:50:45;;;;;;;;;7.50;5.25;;;;;14.95;55.47;101885.75;5014967;28;45315;-56
2022/09/21 00:53:11;;;;;;;;;6.00;6.00;;;;;14.88;55.41;101891.28;4981407;28;45302;-58
2022/09/21 00:55:46;;;;;;;;;6.75;6.75;;;;;14.81;55.47;101882.13;4980486;28;45876;-55
2022/09/21 00:58:14;;;;;;;;;5.40;5.40;;;;;14.80;55.73;101885.09;5014723;28;45335;-57
2022/09/21 01:00:39;;;;;;;;;7.60;5.80;;;;;14.88;55.57;101895.94;4979197;28;45449;-57
2022/09/21 01:03:05;;;;;;;;;5.00;5.00;;;;;14.87;55.60;101892.34;4995187;28;45702;-58
2022/09/21 01:05:31;;;;;;;;;4.50;4.50;;;;;14.81;56.57;101895.09;4994998;28;46030;-56
2022/09/21 01:07:58;;;;;;;;;5.50;5.00;;;;;14.19;56.23;101799.41;4994781;28;45449;-56
2022/09/21 01:10:26;;;;;;;;;6.40;6.00;;;;;14.71;56.49;101896.34;4977589;28;45383;-57
2022/09/21 01:12:57;;;;;;;;;5.20;4.60;;;;;14.73;56.82;101898.91;4977691;28;45537;-57
2022/09/21 01:15:53;;;;;;;;;7.60;5.40;;;;;14.68;57.00;101898.69;4994503;28;45398;-56
2022/09/21 01:18:36;;;;;;;;;5.00;5.00;;;;;14.72;56.30;101900.81;4994707;28;45366;-55
2022/09/21 01:21:17;;;;;;;;;6.20;6.20;;;;;14.70;57.22;101896.53;4954134;28;45947;-56
2022/09/21 01:23:55;;;;;;;;;4.00;4.00;;;;;14.56;57.46;101907.59;4996968;28;45398;-56
2022/09/21 01:26:44;;;;;;;;;3.60;3.60;;;;;14.60;57.06;101902.50;5013757;28;46342;-59
2022/09/21 01:29:18;;;;;;;;;6.60;5.60;;;;;14.44;57.11;101865.06;4991968;28;45372;-58
2022/09/21 01:31:51;;;;;;;;;4.40;4.40;;;;;14.68;56.98;101898.69;5015013;28;45408;-56
2022/09/21 01:34:26;;;;;;;;;5.00;5.00;;;;;14.49;57.40;101879.97;4981054;28;45458;-57
2022/09/21 01:36:54;;;;;;;;;3.80;3.80;;;;;14.53;57.55;101901.63;4997602;28;46287;-58
2022/09/21 01:39:19;;;;;;;;;5.80;4.60;;;;;14.48;57.53;101889.28;4980194;28;45369;-56
2022/09/21 01:41:45;;;;;;;;;4.50;4.00;;;;;14.53;57.38;101901.63;4982633;28;45403;-57
2022/09/21 01:44:32;;;;;;;;;4.50;4.50;;;;;14.58;57.54;101901.84;5000089;28;45454;-57
2022/09/21 01:46:59;;;;;;;;;6.00;4.60;;;;;14.58;57.52;101899.09;4999530;28;48417;-56
2022/09/21 01:49:30;;;;;;;;;4.00;4.00;;;;;14.49;57.33;101902.06;5017286;28;45579;-57
2022/09/21 01:52:16;;;;;;;;;2.80;2.80;;;;;14.44;57.57;101900.97;4983729;28;45393;-57
2022/09/21 01:54:45;;;;;;;;;4.20;4.20;;;;;14.39;57.96;101889.69;5000447;28;45506;-58
2022/09/21 01:57:19;;;;;;;;;4.80;4.80;;;;;14.50;57.54;101891.84;4999800;28;47518;-56
2022/09/21 01:59:50;;;;;;;;;8.20;5.00;;;;;14.53;57.63;101896.97;5000696;28;45492;-56
2022/09/21 02:02:22;;;;;;;;;2.40;2.00;;;;;14.53;57.57;101894.22;4999613;28;45291;-56
2022/09/21 02:04:48;;;;;;;;;7.00;5.20;;;;;14.33;57.21;101861.88;4999737;28;45579;-58
2022/09/21 02:07:15;;;;;;;;;6.00;4.00;;;;;14.39;57.64;101853.78;4999400;28;45667;-58
2022/09/21 02:09:41;;;;;;;;;5.00;5.00;;;;;14.64;57.06;101892.72;4999746;28;45404;-56
2022/09/21 02:12:06;;;;;;;;;5.00;5.00;;;;;14.67;57.39;101891.47;4999607;28;45256;-57
2022/09/21 02:14:32;;;;;;;;;4.00;4.00;;;;;14.64;57.34;101889.97;5017319;28;45791;-56
2022/09/21 02:17:06;;;;;;;;;5.50;5.00;;;;;14.55;57.72;101894.84;4999482;28;47086;-57
2022/09/21 02:19:57;;;;;;;;;6.00;5.00;;;;;13.98;57.98;101819.75;5016966;28;45315;-56
2022/09/21 02:22:39;;;;;;;;;7.40;5.00;;;;;14.09;58.42;101846.75;4997932;28;45425;-57
2022/09/21 02:25:31;;;;;;;;;6.40;5.60;;;;;14.06;58.12;101838.88;4984288;28;45505;-58
2022/09/21 02:28:00;;;;;;;;;7.60;5.60;;;;;14.44;57.91;101895.44;5000508;28;46317;-57
2022/09/21 02:30:26;;;;;;;;;6.20;6.20;;;;;14.53;57.90;101893.34;4998780;28;45377;-57
2022/09/21 02:33:00;;;;;;;;;7.75;6.75;;;;;14.58;57.59;101899.09;4999002;28;45335;-56
2022/09/21 02:35:53;;;;;;;;;6.80;6.80;;;;;14.54;58.26;101897.81;5016930;28;45374;-56
2022/09/21 02:38:26;;;;;;;;;5.40;5.00;;;;;14.55;58.07;101892.06;5001554;28;45421;-57
2022/09/21 02:40:55;;;;;;;;;10.20;7.40;;;;;14.46;58.69;101888.66;4983093;28;45383;-57
2022/09/21 02:43:36;;;;;;;;;7.60;6.20;;;;;14.12;58.89;101854.59;4998676;28;45503;-55
2022/09/21 02:46:11;;;;;;;;;5.80;5.80;;;;;14.32;59.16;101892.47;4983253;28;45423;-57
2022/09/21 02:48:57;;;;;;;;;6.00;4.60;;;;;14.34;58.59;101884.81;4982262;28;45390;-58
2022/09/21 02:51:31;;;;;;;;;4.00;4.00;;;;;14.37;58.54;101873.34;5014933;28;45407;-57
2022/09/21 02:53:57;;;;;;;;;8.20;5.00;;;;;14.39;58.74;101882.28;4982246;28;45346;-57
2022/09/21 02:56:23;;;;;;;;;5.40;5.40;;;;;14.41;58.34;101877.38;4998965;28;45622;-56
2022/09/21 02:58:53;;;;;;;;;4.25;4.25;;;;;14.42;58.37;101872.72;4998133;28;45376;-58
2022/09/21 03:01:18;;;;;;;;;6.00;6.00;;;;;14.36;58.35;101866.97;5016331;28;45454;-57
2022/09/21 03:03:44;;;;;;;;;7.00;6.00;;;;;14.43;58.88;101886.31;4982222;28;45478;-55
2022/09/21 03:06:09;;;;;;;;;10.25;7.00;;;;;14.36;58.56;101866.97;5016489;28;45310;-57
2022/09/21 03:08:35;;;;;;;;;7.00;5.25;;;;;14.17;59.20;101846.56;4998143;28;45744;-55
2022/09/21 03:11:01;;;;;;;;;6.00;6.00;;;;;14.34;58.77;101876.53;5016013;28;45235;-56
2022/09/21 03:13:27;;;;;;;;;5.20;5.20;;;;;14.32;58.63;101884.19;5016085;28;45471;-57
2022/09/21 03:16:02;;;;;;;;;5.00;5.00;;;;;14.36;58.76;101877.19;5015948;28;45365;-59
2022/09/21 03:18:28;;;;;;;;;5.20;5.20;;;;;14.34;59.07;101879.28;5015927;28;46582;-60
2022/09/21 03:20:54;;;;;;;;;8.00;6.75;;;;;14.30;58.30;101876.09;5015756;28;45279;-56
2022/09/21 03:23:19;;;;;;;;;5.50;5.00;;;;;14.24;58.41;101854.84;4965797;28;45350;-57
2022/09/21 03:25:45;;;;;;;;;5.00;5.00;;;;;14.22;58.65;101849.56;5015698;28;45576;-56
2022/09/21 03:28:12;;;;;;;;;5.25;5.25;;;;;14.35;58.70;101873.56;4998020;28;46599;-57
2022/09/21 03:30:37;;;;;;;;;6.40;6.40;;;;;14.36;58.44;101869.72;5015699;28;45431;-55
2022/09/21 03:33:04;;;;;;;;;7.25;6.00;;;;;14.33;58.11;101870.16;4998058;28;45389;-55
2022/09/21 03:35:30;;;;;;;;;4.80;4.80;;;;;14.29;58.72;101868.03;4998410;28;45629;-57
2022/09/21 03:37:56;;;;;;;;;8.00;5.75;;;;;14.30;58.67;101878.84;4981232;28;46534;-57
2022/09/21 03:40:22;;;;;;;;;5.20;5.20;;;;;14.32;59.04;101881.41;5015596;28;45629;-56
2022/09/21 03:42:47;;;;;;;;;4.25;4.00;;;;;14.33;58.39;101883.97;5015425;28;45443;-57
2022/09/21 03:45:13;;;;;;;;;6.50;6.50;;;;;14.30;58.91;101876.09;4998044;28;45392;-58
2022/09/21 03:47:39;;;;;;;;;7.00;5.75;;;;;14.30;58.56;101880.78;5015812;28;45483;-54
2022/09/21 03:50:06;;;;;;;;;7.25;5.00;;;;;14.23;58.85;101878.84;4997245;28;45392;-57
2022/09/21 03:52:31;;;;;;;;;8.80;7.40;;;;;14.20;58.94;101876.50;4997804;28;45438;-57
2022/09/21 03:54:57;;;;;;;;;9.00;7.50;;;;;14.00;59.14;101848.84;5015638;28;45660;-58
2022/09/21 03:57:22;;;;;;;;;9.75;8.75;;;;;14.10;59.35;101884.34;5015500;28;46610;-54
2022/09/21 03:59:48;;;;;;;;;14.50;11.50;;;;;14.14;59.15;101885.59;5015071;28;45428;-58
2022/09/21 04:02:14;;;;;;;;;22.25;18.75;;;;;14.08;59.26;101889.19;5015344;28;45472;-55
2022/09/21 04:04:40;;;;;;;;;15.00;12.40;;;;;14.04;59.60;101876.88;5014777;28;45548;-55
2022/09/21 04:07:05;;;;;;;;;28.75;21.25;;;;;14.03;59.34;101877.94;5014884;28;46493;-56
2022/09/21 04:09:31;;;;;;;;;23.50;19.50;;;;;13.93;59.43;101872.81;5015062;28;45222;-55
2022/09/21 04:11:56;;;;;;;;;28.25;23.75;;;;;13.98;59.64;101877.72;4997767;28;45519;-58
2022/09/21 04:14:22;;;;;;;;;37.75;27.50;;;;;13.90;59.70;101857.53;5015067;28;45378;-55
2022/09/21 04:16:49;;;;;;;;;28.25;25.00;;;;;13.94;59.65;101871.75;5014805;28;45922;-54
2022/09/21 04:19:15;;;;;;;;;20.60;17.40;;;;;13.65;59.58;101827.72;5014759;28;45426;-57
2022/09/21 04:21:40;;;;;;;;;22.00;15.25;;;;;13.96;59.58;101883.44;5015051;28;45390;-57
2022/09/21 04:24:06;;;;;;;;;16.50;16.25;;;;;13.88;60.20;101867.91;5015116;28;45385;-56
2022/09/21 04:26:32;;;;;;;;;18.75;15.50;;;;;13.89;60.10;101866.00;5014669;28;45774;-56
2022/09/21 04:28:58;;;;;;;;;14.80;14.80;;;;;13.78;59.92;101854.50;4997440;28;45468;-54
2022/09/21 04:31:24;;;;;;;;;15.25;14.25;;;;;13.74;59.76;101842.19;4997255;28;45425;-56
2022/09/21 04:33:50;;;;;;;;;19.80;15.20;;;;;13.85;60.02;101875.75;5015438;28;45638;-57
2022/09/21 04:36:20;;;;;;;;;19.80;17.40;;;;;13.62;60.31;101844.69;5014591;28;46879;-57
2022/09/21 04:38:46;;;;;;;;;17.80;16.20;;;;;13.76;60.41;101873.16;5014880;28;45476;-56
2022/09/21 04:41:11;;;;;;;;;19.25;17.25;;;;;13.81;60.39;101872.53;5015109;28;45400;-56
2022/09/21 04:43:37;;;;;;;;;15.75;14.50;;;;;13.87;60.30;101876.41;4983424;28;45406;-56
2022/09/21 04:46:06;;;;;;;;;12.50;11.25;;;;;13.82;59.62;101864.06;4977319;28;45322;-55
2022/09/21 04:48:32;;;;;;;;;14.40;11.40;;;;;13.87;59.92;101877.25;4994603;28;45270;-54
2022/09/21 04:50:57;;;;;;;;;14.75;12.00;;;;;13.89;59.95;101888.94;4977640;28;45404;-56
2022/09/21 04:53:23;;;;;;;;;11.25;8.25;;;;;13.86;59.63;101883.00;4995088;28;45825;-56
2022/09/21 04:55:48;;;;;;;;;8.75;7.50;;;;;13.75;59.85;101882.50;4994847;28;45550;-56
2022/09/21 04:58:14;;;;;;;;;12.25;9.00;;;;;13.80;59.59;101882.75;4994701;28;45352;-56
2022/09/21 05:00:39;;;;;;;;;7.00;7.00;;;;;13.81;59.74;101881.69;4977123;28;45352;-56
2022/09/21 05:03:05;;;;;;;;;9.00;7.75;;;;;13.78;60.11;101887.59;4994992;28;45419;-56
2022/09/21 05:05:30;;;;;;;;;7.00;6.75;;;;;13.78;60.22;101886.78;4994573;28;45458;-56
2022/09/21 05:07:56;;;;;;;;;7.00;7.00;;;;;13.74;60.29;101891.84;4994778;28;45360;-56
2022/09/21 05:10:21;;;;;;;;;7.50;7.50;;;;;13.77;59.74;101887.81;4994910;28;45446;-56
2022/09/21 05:12:47;;;;;;;;;6.50;6.25;;;;;13.60;60.12;101856.97;4994700;28;45438;-54
2022/09/21 05:15:13;;;;;;;;;7.00;7.00;;;;;13.78;60.16;101892.28;4986403;28;45849;-55
2022/09/21 05:17:40;;;;;;;;;11.00;9.80;;;;;13.49;60.19;101850.13;5019330;28;45959;-56
2022/09/21 05:20:06;;;;;;;;;9.20;8.00;;;;;13.60;59.99;101865.25;5003625;28;45439;-56
2022/09/21 05:22:31;;;;;;;;;9.60;6.60;;;;;13.77;59.92;101880.38;5037912;28;45372;-57
2022/09/21 05:24:57;;;;;;;;;11.75;8.25;;;;;13.76;59.98;101880.63;5037186;28;45917;-56
2022/09/21 05:27:22;;;;;;;;;9.00;8.00;;;;;13.55;59.75;101861.19;5037656;28;45353;-55
2022/09/21 05:29:48;;;;;;;;;6.00;6.00;;;;;13.44;60.40;101856.22;5037483;28;45293;-55
2022/09/21 05:32:22;;;;;;;;;8.00;6.50;;;;;13.58;60.77;101887.53;5037687;28;45573;-55
2022/09/21 05:34:56;;;;;;;;;10.40;8.40;;;;;13.59;60.80;101888.34;5037385;28;46406;-56
2022/09/21 05:37:40;;;;;;;;;11.00;9.00;;;;;13.52;60.60;101874.53;5019726;28;45402;-55
2022/09/21 05:40:06;;;;;;;;;9.40;9.00;;;;;13.45;60.80;101865.34;5019458;28;45456;-57
2022/09/21 05:42:32;;;;;;;;;10.20;8.80;;;;;13.59;60.76;101891.13;5033182;28;45342;-56
2022/09/21 05:44:58;;;;;;;;;12.25;11.00;;;;;13.55;60.58;101894.28;5017160;28;46413;-55
2022/09/21 05:47:42;;;;;;;;;10.80;10.40;;;;;13.57;61.04;101894.09;5017098;28;45434;-56
2022/09/21 05:50:33;;;;;;;;;9.00;8.00;;;;;13.32;60.69;101850.44;4999309;28;45423;-55
2022/09/21 05:53:26;;;;;;;;;7.80;7.80;;;;;13.60;60.81;101888.16;5017260;28;45624;-53
2022/09/21 05:55:55;;;;;;;;;6.60;6.60;;;;;13.36;60.85;101837.09;5001996;28;45427;-59
2022/09/21 05:58:58;;;;;;;;;9.60;8.80;;;;;13.58;61.26;101890.28;4999747;28;45447;-56
2022/09/21 06:01:37;;;;;;;;;11.60;9.20;;;;;13.51;61.49;101892.16;5017347;28;45394;-55
2022/09/21 06:04:03;;;;;;;;;12.00;9.80;;;;;13.23;61.48;101854.41;4999327;28;45596;-55
2022/09/21 06:06:29;;;;;;;;;12.00;10.00;;;;;13.38;62.04;101881.84;4999331;28;45744;-59
2022/09/21 06:08:54;;;;;;;;;10.75;7.00;;;;;13.40;61.80;101877.00;5016925;28;45471;-56
2022/09/21 06:11:19;;;;;;;;;11.50;11.50;;;;;13.44;61.62;101881.03;4999340;28;45320;-56
2022/09/21 06:13:45;;;;;;;;;8.50;7.75;;;;;13.46;61.70;101876.22;4999381;28;45462;-57
2022/09/21 06:16:11;;;;;;;;;7.75;7.75;;;;;13.54;61.41;101883.47;4982462;28;48795;-56
2022/09/21 06:18:40;;;;;;;;;10.75;9.75;;;;;13.59;61.57;101885.59;5017098;28;45432;-56
2022/09/21 06:21:05;;;;;;;;;6.40;6.40;;;;;13.52;61.50;101888.34;5016860;28;45354;-57
2022/09/21 06:23:31;;;;;;;;;16.40;11.80;;;;;13.47;61.69;101883.44;5017127;28;45640;-56
2022/09/21 06:25:57;;;;;;;;;8.75;8.75;;;;;13.46;61.37;101891.91;5016050;28;45662;-56
2022/09/21 06:28:22;;;;;;;;;11.00;11.00;;;;;13.42;61.83;101895.06;5016302;28;45427;-57
2022/09/21 06:30:51;;;;;;;;;10.50;9.00;;;;;13.47;61.14;101897.22;5016965;28;45427;-57
2022/09/21 06:33:19;;;;;;;;;11.20;10.40;;;;;13.45;61.39;101882.75;5016877;28;45483;-55
2022/09/21 06:35:56;;;;;;;;;12.40;11.40;;;;;13.45;61.68;101882.75;4966925;28;48125;-55
2022/09/21 06:38:22;;;;;;;;;12.00;10.60;;;;;13.18;60.99;101843.16;5016484;28;45372;-56
2022/09/21 06:40:50;;;;;;;;;9.00;9.00;;;;;13.52;61.87;101899.38;5016749;28;45463;-58
2022/09/21 06:43:15;;;;;;;;;12.60;11.60;;;;;13.51;61.67;101903.19;5016332;28;45399;-55
2022/09/21 06:45:41;;;;;;;;;10.75;10.50;;;;;13.54;61.54;101891.72;5016394;28;47142;-56
2022/09/21 06:48:06;;;;;;;;;15.25;13.75;;;;;13.57;61.47;101905.13;5016392;28;45421;-55
2022/09/21 06:50:32;;;;;;;;;13.25;12.25;;;;;13.49;61.51;101884.06;5016253;28;45393;-54
2022/09/21 06:53:01;;;;;;;;;12.50;9.50;;;;;13.62;61.38;101896.25;5016629;28;45382;-54
2022/09/21 06:55:28;;;;;;;;;15.20;13.00;;;;;13.67;60.89;101908.34;4998316;28;45836;-56
2022/09/21 06:58:00;;;;;;;;;15.40;14.60;;;;;13.26;60.66;101829.19;4982286;28;45382;-55
2022/09/21 07:00:26;;;;;;;;;17.00;16.60;;;;;13.70;61.24;101904.34;5016252;28;45348;-59
2022/09/21 07:02:51;;;;;;;;;21.25;15.50;;;;;13.62;61.35;101899.88;5016473;28;45314;-55
2022/09/21 07:05:17;;;;;;;;;17.50;14.75;;;;;13.33;61.04;101859.56;5015987;28;46219;-56
2022/09/21 07:07:42;;;;;;;;;22.75;17.25;;;;;13.65;61.04;101893.91;5015874;28;45346;-54
2022/09/21 07:10:08;;;;;;;;;13.50;12.25;;;;;13.67;61.51;101897.31;5013699;28;45374;-56
2022/09/21 07:12:34;;;;;;;;;15.75;14.75;;;;;13.68;61.36;101893.50;4996179;28;45330;-53
2022/09/21 07:15:01;;;;;;;;;16.00;16.00;;;;;13.65;61.02;101893.06;4996162;28;46017;-56
2022/09/21 07:17:33;;;;;;;;;16.20;14.80;;;;;13.74;61.05;101902.88;4995997;28;45339;-56
2022/09/21 07:20:00;;;;;;;;;18.20;17.00;;;;;13.78;61.02;101897.81;4978782;28;45379;-60
2022/09/21 07:22:27;;;;;;;;;17.00;13.60;;;;;13.62;60.60;101866.75;4978758;28;45629;-60
2022/09/21 07:24:53;;;;;;;;;19.80;16.60;;;;;13.82;60.85;101893.56;4995381;28;46148;-60
2022/09/21 07:27:19;;;;;;;;;20.75;16.00;;;;;13.82;60.79;101894.44;4978516;28;45439;-59
2022/09/21 07:29:44;;;;;;;;;17.25;14.75;;;;;13.83;60.76;101887.00;4996126;28;45433;-59
2022/09/21 07:32:12;;;;;;;;;14.75;13.75;;;;;13.78;60.81;101892.28;4968060;28;46117;-59
2022/09/21 07:34:38;;;;;;;;;20.00;18.00;;;;;13.83;60.56;101896.13;4997733;28;48031;-59
2022/09/21 07:37:04;;;;;;;;;21.00;19.80;;;;;13.85;60.84;101887.66;4981474;28;45447;-60
2022/09/21 07:39:30;;;;;;;;;16.00;14.50;;;;;13.92;60.69;101887.66;4996409;28;45331;-58
2022/09/21 07:41:57;;;;;;;;;23.00;18.00;;;;;13.94;61.04;101888.31;5015660;28;45449;-59
2022/09/21 07:44:23;;;;;;;;;27.60;20.40;;;;;13.88;60.68;101887.22;5014929;28;45819;-58
2022/09/21 07:46:49;;;;;;;;;22.20;19.40;;;;;13.87;60.44;101877.25;4980859;28;45447;-57
2022/09/21 07:49:14;;;;;;;;;22.50;19.75;;;;;13.91;60.85;101886.81;5015540;28;45318;-57
2022/09/21 07:51:40;;;;;;;;;24.75;23.75;;;;;13.96;60.29;101883.44;4997610;28;45576;-59
2022/09/21 07:54:05;;;;;;;;;23.75;18.25;;;;;13.92;60.59;101871.97;5015166;28;45778;-58
2022/09/21 07:56:31;;;;;;;;;20.00;14.75;;;;;13.65;59.96;101821.34;5015008;28;45250;-57
2022/09/21 07:59:05;;;;;;;;;20.25;17.50;;;;;14.10;59.91;101876.91;4962273;28;45565;-59
2022/09/21 08:01:35;;;;;;;;;20.40;17.60;;;;;14.13;59.87;101881.16;4981407;28;45630;-59
2022/09/21 08:04:00;;;;;;;;;18.40;18.00;;;;;14.17;59.32;101881.59;5015250;28;46356;-60
2022/09/21 08:06:28;;;;;;;;;20.25;18.50;;;;;14.20;60.04;101878.41;5015114;28;45445;-58
2022/09/21 08:08:53;;;;;;;;;17.20;17.00;;;;;14.22;59.13;101874.41;5015039;28;45319;-58
2022/09/21 08:11:21;;;;;;;;;23.00;18.75;;;;;14.28;59.35;101885.63;4965039;28;45308;-55
2022/09/21 08:13:47;;;;;;;;;18.00;15.60;;;;;14.33;58.97;101883.97;5014962;28;46940;-56
2022/09/21 08:16:13;;;;;;;;;9.60;8.00;;;;;14.27;59.03;101884.81;5014902;28;45268;-59
2022/09/21 08:18:39;;;;;;;;;19.75;16.50;;;;;14.28;58.69;101889.28;5015186;28;45347;-58
2022/09/21 08:21:04;;;;;;;;;16.40;16.40;;;;;14.31;58.73;101891.59;5015212;28;45441;-60
2022/09/21 08:23:30;;;;;;;;;20.25;16.25;;;;;14.33;58.97;101885.88;5014882;28;46165;-58
2022/09/21 08:26:00;;;;;;;;;19.25;16.25;;;;;14.41;58.58;101882.06;5010399;28;47049;-60
2022/09/21 08:28:26;;;;;;;;;17.00;16.40;;;;;14.41;58.10;101885.66;5011296;28;45448;-60
2022/09/21 08:30:55;;;;;;;;;17.60;14.40;;;;;14.47;57.67;101887.59;4996050;28;45367;-60
2022/09/21 08:33:28;;;;;;;;;14.40;14.40;;;;;14.53;57.79;101887.81;4953370;28;46505;-60
2022/09/21 08:35:56;;;;;;;;;20.00;15.40;;;;;14.46;57.30;101883.13;5015903;28;45466;-60
2022/09/21 08:38:22;;;;;;;;;19.20;16.40;;;;;14.46;57.80;101879.53;5033212;28;45424;-59
2022/09/21 08:40:48;;;;;;;;;17.50;17.00;;;;;14.50;57.33;101884.44;5033468;28;45646;-60
2022/09/21 08:43:26;;;;;;;;;21.20;15.80;;;;;14.54;57.23;101878.47;5006993;28;46196;-60
2022/09/21 08:45:52;;;;;;;;;19.20;15.80;;;;;14.69;57.14;101881.03;5019630;28;45430;-60
2022/09/21 08:48:26;;;;;;;;;13.75;13.25;;;;;14.62;56.70;101881.03;4999053;28;45399;-61
2022/09/21 08:50:53;;;;;;;;;17.80;16.20;;;;;14.58;56.64;101868.69;5003420;28;45461;-60
2022/09/21 08:53:30;;;;;;;;;16.40;15.00;;;;;14.70;56.57;101883.59;5015145;28;46527;-59
2022/09/21 08:55:56;;;;;;;;;16.40;10.40;;;;;14.58;55.64;101852.97;4998500;28;45467;-59
2022/09/21 08:58:32;;;;;;;;;15.00;12.00;;;;;14.83;55.94;101890.22;5001481;28;45343;-61
2022/09/21 09:01:22;;;;;;;;;17.00;15.20;;;;;14.90;55.52;101894.66;4999584;28;45698;-60
2022/09/21 09:04:16;;;;;;;;;14.00;13.20;;;;;14.75;55.70;101850.69;5016872;28;46064;-61
2022/09/21 09:07:16;;;;;;;;;16.00;13.60;;;;;14.85;55.91;101863.22;5015968;28;45497;-61
2022/09/21 09:09:53;;;;;;;;;16.60;13.80;;;;;15.10;55.38;101890.22;5018249;28;45460;-61
2022/09/21 09:12:28;;;;;;;;;14.60;13.40;;;;;15.14;55.48;101897.84;5018612;28;45438;-60
2022/09/21 09:15:06;;;;;;;;;10.80;10.80;;;;;15.19;55.38;101894.44;5018224;28;46340;-61
2022/09/21 09:17:50;;;;;;;;;18.60;17.20;;;;;15.33;55.27;101889.75;5019515;28;45399;-60
2022/09/21 09:20:23;;;;;;;;;14.20;14.20;;;;;15.19;54.06;101858.50;5030542;28;45576;-60
2022/09/21 09:23:06;;;;;;;;;9.20;9.00;;;;;15.46;53.91;101891.63;4993245;28;45412;-62
2022/09/21 09:25:38;;;;;;;;;10.20;10.00;;;;;15.39;53.29;101883.34;4969193;28;45698;-60
2022/09/21 09:28:43;;;;;;;;;10.20;7.40;;;;;15.58;52.72;101892.66;5014577;28;45346;-59
2022/09/21 09:31:21;;;;;;;;;8.40;7.20;;;;;15.48;52.16;101861.81;5015168;28;45412;-57
2022/09/21 09:34:10;;;;;;;;;11.20;10.60;;;;;15.50;52.20;101853.28;5013346;28;45445;-59
2022/09/21 09:36:37;;;;;;;;;8.60;7.40;;;;;15.83;52.28;101885.53;5008285;28;45421;-58
2022/09/21 09:39:12;;;;;;;;;7.40;7.40;;;;;15.73;51.81;101852.78;4996143;28;45381;-59
2022/09/21 09:42:06;;;;;;;;;9.20;7.80;;;;;15.97;51.04;101872.50;4995010;28;45395;-61
2022/09/21 09:44:59;;;;;;;;;6.80;5.00;;;;;16.06;51.35;101889.72;4996216;28;45319;-59
2022/09/21 09:48:12;;;;;;;;;10.60;8.80;;;;;16.20;51.36;101882.19;5009221;28;46158;-58
2022/09/21 09:50:47;;;;;;;;;10.20;7.40;;;;;16.31;50.57;101887.03;5014727;28;45396;-60
2022/09/21 09:53:35;;;;;;;;;8.40;8.40;;;;;16.35;50.42;101882.75;5014682;28;45427;-59
2022/09/21 09:56:54;;;;;;;;;10.20;7.60;;;;;16.49;50.48;101893.72;5015155;28;45390;-61
2022/09/21 09:59:34;;;;;;;;;7.80;7.20;;;;;16.59;50.34;101893.25;5013811;28;46052;-59
2022/09/21 10:02:17;;;;;;;;;7.00;7.00;;;;;16.61;50.03;101886.41;4998983;28;45441;-59
2022/09/21 10:05:06;;;;;;;;;10.60;9.80;;;;;16.46;49.82;101852.59;5014670;28;45402;-59
2022/09/21 10:07:39;;;;;;;;;6.40;6.00;;;;;16.71;49.07;101877.56;4997869;28;45892;-59
2022/09/21 10:10:30;;;;;;;;;8.80;7.80;;;;;16.71;48.71;101865.63;4993207;28;45538;-59
2022/09/21 10:13:14;;;;;;;;;7.80;7.80;;;;;16.82;48.61;101873.22;4958690;28;45706;-60
2022/09/21 10:15:53;;;;;;;;;8.60;8.00;;;;;16.87;48.71;101867.00;4976182;28;45386;-60
2022/09/21 10:18:44;;;;;;;;;9.00;7.40;;;;;16.98;48.94;101857.94;4975518;28;45424;-60
2022/09/21 10:21:19;;;;;;;;;9.80;9.80;;;;;17.13;48.48;101862.31;4964017;28;46587;-59
2022/09/21 10:23:51;;;;;;;;;11.20;10.60;;;;;17.17;48.23;101860.75;5012511;28;45439;-58
2022/09/21 10:26:18;;;;;;;;;10.00;9.00;;;;;17.23;48.27;101836.81;5014585;28;45355;-60
2022/09/21 10:29:16;;;;;;;;;12.60;10.60;;;;;17.45;48.14;101860.25;4998425;28;45436;-59
2022/09/21 10:32:01;;;;;;;;;9.80;9.40;;;;;17.57;47.34;101859.47;5015114;28;46298;-59
2022/09/21 10:34:31;;;;;;;;;10.00;8.20;;;;;17.55;47.00;101850.53;5012864;28;45467;-59
2022/09/21 10:36:59;;;;;;;;;11.20;9.20;;;;;17.68;46.87;101858.69;4998215;28;45835;-60
2022/09/21 10:39:27;;;;;;;;;9.00;9.00;;;;;17.77;46.11;101847.28;5014137;28;45406;-59
2022/09/21 10:42:07;;;;;;;;;8.80;8.40;;;;;17.83;46.21;101851.88;4998246;28;47198;-59
2022/09/21 10:44:44;;;;;;;;;8.00;8.00;;;;;17.90;45.89;101858.19;4994367;28;45398;-59
2022/09/21 10:47:41;;;;;;;;;7.20;7.00;;;;;17.96;45.57;101846.16;4993197;28;45399;-57
2022/09/21 10:50:25;;;;;;;;;6.00;6.00;;;;;18.12;44.97;101854.94;4979363;28;45429;-59
2022/09/21 10:52:55;;;;;;;;;4.80;4.80;;;;;18.20;44.54;101849.03;4994984;28;45476;-60
2022/09/21 10:55:21;;;;;;;;;6.00;6.00;;;;;18.25;44.56;101854.72;4977269;28;45377;-61
2022/09/21 10:57:47;;;;;;;;;6.00;5.60;;;;;18.31;43.79;101840.97;4977266;28;45385;-60
2022/09/21 11:00:25;;;;;;;;;8.00;6.75;;;;;18.40;43.94;101850.66;5005999;28;45363;-60
2022/09/21 11:02:51;;;;;;;;;6.00;6.00;;;;;18.36;44.08;101827.22;5013235;28;47570;-58
2022/09/21 11:05:25;;;;;;;;;5.25;5.25;;;;;18.59;44.15;101831.13;5013416;28;46034;-60
2022/09/21 11:08:17;;;;;;;;;6.00;4.60;;;;;18.15;43.28;101716.41;5015691;28;45373;-55
2022/09/21 11:11:06;;;;;;;;;5.40;5.40;;;;;18.91;43.25;101828.00;5013592;28;45474;-58
2022/09/21 11:13:48;;;;;;;;;4.20;4.20;;;;;19.09;43.67;101819.56;5015769;28;46654;-60
2022/09/21 11:16:25;;;;;;;;;4.20;4.00;;;;;19.26;44.03;101818.81;5014812;28;45428;-60
2022/09/21 11:19:19;;;;;;;;;6.40;6.40;;;;;19.47;43.12;101825.66;4933129;28;45541;-60
2022/09/21 11:22:06;;;;;;;;;4.40;4.40;;;;;19.52;42.39;101838.00;4949474;28;45640;-58
2022/09/21 11:24:50;;;;;;;;;5.60;5.60;;;;;19.54;41.29;101814.41;4997171;28;47680;-58
2022/09/21 11:27:28;;;;;;;;;5.80;5.80;;;;;19.64;40.64;101813.78;4989827;28;45532;-56
2022/09/21 11:30:09;;;;;;;;;5.40;5.00;;;;;19.73;41.22;101817.84;4989811;28;45805;-55
2022/09/21 11:32:55;;;;;;;;;5.40;5.00;;;;;19.88;41.00;101825.66;4999665;28;45661;-52
2022/09/21 11:35:39;;;;;;;;;5.20;5.00;;;;;19.96;39.12;101809.66;4939670;28;45881;-55
2022/09/21 11:38:11;;;;;;;;;4.00;3.00;;;;;20.09;39.23;101814.06;4987522;28;45460;-56
2022/09/21 11:40:45;;;;;;;;;4.20;4.20;;;;;20.21;39.35;101812.06;4990454;28;45347;-55